sensor_id;sensor_type;location;lat;lon;timestamp;P1;durP1;ratioP1;P2;durP2;ratioP2
79052;SDS011;68451;49.510;6.026;2023-07-31T00:00:07;8.95;;;3.78;;
79052;SDS011;68451;49.510;6.026;2023-07-31T00:02:34;5.75;;;3.28;;
79052;SDS011;68451;49.510;6.026;2023-07-31T00:05:00;6.70;;;3.72;;
79052;SDS011;68451;49.510;6.026;2023-07-31T00:07:26;8.52;;;3.25;;
79052;SDS011;68451;49.510;6.026;2023-07-31T00:09:52;6.25;;;3.30;;
79052;SDS011;68451;49.510;6.026;2023-07-31T00:12:18;5.88;;;2.75;;
79052;SDS011;68451;49.510;6.026;2023-07-31T00:14:44;6.75;;;2.95;;
79052;SDS011;68451;49.510;6.026;2023-07-31T00:17:09;7.03;;;2.88;;
79052;SDS011;68451;49.510;6.026;2023-07-31T00:19:35;4.65;;;2.92;;
79052;SDS011;68451;49.510;6.026;2023-07-31T00:22:00;4.82;;;3.08;;
79052;SDS011;68451;49.510;6.026;2023-07-31T00:24:26;5.28;;;2.70;;
79052;SDS011;68451;49.510;6.026;2023-07-31T00:26:51;4.18;;;2.42;;
79052;SDS011;68451;49.510;6.026;2023-07-31T00:29:17;11.20;;;3.72;;
79052;SDS011;68451;49.510;6.026;2023-07-31T00:31:42;9.15;;;3.47;;
79052;SDS011;68451;49.510;6.026;2023-07-31T00:34:08;6.85;;;3.03;;
79052;SDS011;68451;49.510;6.026;2023-07-31T00:36:33;8.60;;;3.42;;
79052;SDS011;68451;49.510;6.026;2023-07-31T00:38:59;9.63;;;3.35;;
79052;SDS011;68451;49.510;6.026;2023-07-31T00:41:24;7.18;;;2.97;;
79052;SDS011;68451;49.510;6.026;2023-07-31T00:43:50;7.30;;;3.22;;
79052;SDS011;68451;49.510;6.026;2023-07-31T00:46:15;6.63;;;3.20;;
79052;SDS011;68451;49.510;6.026;2023-07-31T00:48:41;7.10;;;3.25;;
79052;SDS011;68451;49.510;6.026;2023-07-31T00:51:07;7.05;;;3.63;;
79052;SDS011;68451;49.510;6.026;2023-07-31T00:53:33;12.32;;;4.45;;
79052;SDS011;68451;49.510;6.026;2023-07-31T00:55:59;8.05;;;3.45;;
79052;SDS011;68451;49.510;6.026;2023-07-31T00:58:24;7.30;;;3.25;;
79052;SDS011;68451;49.510;6.026;2023-07-31T01:00:50;4.82;;;3.42;;
79052;SDS011;68451;49.510;6.026;2023-07-31T01:03:16;7.43;;;2.63;;
79052;SDS011;68451;49.510;6.026;2023-07-31T01:08:32;6.20;;;2.70;;
79052;SDS011;68451;49.510;6.026;2023-07-31T01:11:17;8.38;;;3.28;;
79052;SDS011;68451;49.510;6.026;2023-07-31T01:13:50;7.53;;;4.30;;
79052;SDS011;68451;49.510;6.026;2023-07-31T01:16:16;10.20;;;2.92;;
79052;SDS011;68451;49.510;6.026;2023-07-31T01:18:41;8.95;;;3.30;;
79052;SDS011;68451;49.510;6.026;2023-07-31T01:21:15;5.93;;;3.10;;
79052;SDS011;68451;49.510;6.026;2023-07-31T01:24:12;7.20;;;3.15;;
79052;SDS011;68451;49.510;6.026;2023-07-31T01:26:55;4.38;;;2.50;;
79052;SDS011;68451;49.510;6.026;2023-07-31T01:29:28;8.95;;;3.15;;
79052;SDS011;68451;49.510;6.026;2023-07-31T01:32:08;5.78;;;3.13;;
79052;SDS011;68451;49.510;6.026;2023-07-31T01:34:35;11.68;;;3.80;;
79052;SDS011;68451;49.510;6.026;2023-07-31T01:37:02;9.55;;;3.78;;
79052;SDS011;68451;49.510;6.026;2023-07-31T01:39:28;8.25;;;4.03;;
79052;SDS011;68451;49.510;6.026;2023-07-31T01:41:53;5.97;;;2.78;;
79052;SDS011;68451;49.510;6.026;2023-07-31T01:44:19;5.68;;;3.05;;
79052;SDS011;68451;49.510;6.026;2023-07-31T01:46:44;9.98;;;3.78;;
79052;SDS011;68451;49.510;6.026;2023-07-31T01:49:10;6.65;;;3.40;;
79052;SDS011;68451;49.510;6.026;2023-07-31T01:51:35;5.72;;;3.03;;
79052;SDS011;68451;49.510;6.026;2023-07-31T01:54:01;8.48;;;4.35;;
79052;SDS011;68451;49.510;6.026;2023-07-31T01:56:27;8.45;;;3.20;;
79052;SDS011;68451;49.510;6.026;2023-07-31T01:58:52;5.65;;;3.15;;
79052;SDS011;68451;49.510;6.026;2023-07-31T02:01:18;8.32;;;4.13;;
79052;SDS011;68451;49.510;6.026;2023-07-31T02:03:43;6.43;;;2.95;;
79052;SDS011;68451;49.510;6.026;2023-07-31T02:06:09;8.65;;;3.20;;
79052;SDS011;68451;49.510;6.026;2023-07-31T02:08:34;9.82;;;3.42;;
79052;SDS011;68451;49.510;6.026;2023-07-31T02:11:00;6.72;;;3.10;;
79052;SDS011;68451;49.510;6.026;2023-07-31T02:13:25;7.38;;;3.85;;
79052;SDS011;68451;49.510;6.026;2023-07-31T02:15:51;7.25;;;3.08;;
79052;SDS011;68451;49.510;6.026;2023-07-31T02:18:16;7.93;;;3.47;;
79052;SDS011;68451;49.510;6.026;2023-07-31T02:20:42;6.20;;;3.30;;
79052;SDS011;68451;49.510;6.026;2023-07-31T02:23:08;5.53;;;3.55;;
79052;SDS011;68451;49.510;6.026;2023-07-31T02:25:33;5.38;;;3.20;;
79052;SDS011;68451;49.510;6.026;2023-07-31T02:27:59;5.00;;;2.53;;
79052;SDS011;68451;49.510;6.026;2023-07-31T02:30:24;7.50;;;3.60;;
79052;SDS011;68451;49.510;6.026;2023-07-31T02:32:50;6.90;;;2.60;;
79052;SDS011;68451;49.510;6.026;2023-07-31T02:35:15;7.95;;;3.70;;
79052;SDS011;68451;49.510;6.026;2023-07-31T02:37:41;7.18;;;3.20;;
79052;SDS011;68451;49.510;6.026;2023-07-31T02:40:08;8.00;;;2.92;;
79052;SDS011;68451;49.510;6.026;2023-07-31T02:42:33;8.80;;;3.30;;
79052;SDS011;68451;49.510;6.026;2023-07-31T02:44:59;6.40;;;2.90;;
79052;SDS011;68451;49.510;6.026;2023-07-31T02:47:24;8.05;;;3.15;;
79052;SDS011;68451;49.510;6.026;2023-07-31T02:49:50;9.07;;;3.13;;
79052;SDS011;68451;49.510;6.026;2023-07-31T02:52:15;5.65;;;3.20;;
79052;SDS011;68451;49.510;6.026;2023-07-31T02:54:41;7.75;;;3.03;;
79052;SDS011;68451;49.510;6.026;2023-07-31T02:57:06;5.72;;;2.80;;
79052;SDS011;68451;49.510;6.026;2023-07-31T02:59:32;9.30;;;3.17;;
79052;SDS011;68451;49.510;6.026;2023-07-31T03:01:57;5.65;;;3.05;;
79052;SDS011;68451;49.510;6.026;2023-07-31T03:04:23;3.47;;;2.85;;
79052;SDS011;68451;49.510;6.026;2023-07-31T03:06:48;6.03;;;2.80;;
79052;SDS011;68451;49.510;6.026;2023-07-31T03:09:14;8.43;;;3.28;;
79052;SDS011;68451;49.510;6.026;2023-07-31T03:11:39;10.02;;;3.05;;
79052;SDS011;68451;49.510;6.026;2023-07-31T03:14:04;6.50;;;2.80;;
79052;SDS011;68451;49.510;6.026;2023-07-31T03:16:30;5.18;;;3.03;;
79052;SDS011;68451;49.510;6.026;2023-07-31T03:18:55;6.40;;;2.63;;
79052;SDS011;68451;49.510;6.026;2023-07-31T03:21:21;7.55;;;3.00;;
79052;SDS011;68451;49.510;6.026;2023-07-31T03:23:46;6.53;;;4.03;;
79052;SDS011;68451;49.510;6.026;2023-07-31T03:26:12;8.85;;;3.17;;
79052;SDS011;68451;49.510;6.026;2023-07-31T03:28:37;6.57;;;3.10;;
79052;SDS011;68451;49.510;6.026;2023-07-31T03:31:03;6.47;;;2.83;;
79052;SDS011;68451;49.510;6.026;2023-07-31T03:33:28;6.13;;;3.50;;
79052;SDS011;68451;49.510;6.026;2023-07-31T03:35:54;5.82;;;2.65;;
79052;SDS011;68451;49.510;6.026;2023-07-31T03:38:19;9.57;;;3.17;;
79052;SDS011;68451;49.510;6.026;2023-07-31T03:40:45;8.90;;;3.75;;
79052;SDS011;68451;49.510;6.026;2023-07-31T03:43:11;8.60;;;3.95;;
79052;SDS011;68451;49.510;6.026;2023-07-31T03:45:37;10.52;;;3.88;;
79052;SDS011;68451;49.510;6.026;2023-07-31T03:48:03;7.55;;;3.03;;
79052;SDS011;68451;49.510;6.026;2023-07-31T03:50:29;6.78;;;3.10;;
79052;SDS011;68451;49.510;6.026;2023-07-31T03:52:55;5.72;;;2.67;;
79052;SDS011;68451;49.510;6.026;2023-07-31T03:55:20;5.40;;;3.08;;
79052;SDS011;68451;49.510;6.026;2023-07-31T03:57:47;6.25;;;2.92;;
79052;SDS011;68451;49.510;6.026;2023-07-31T04:00:13;4.85;;;3.03;;
79052;SDS011;68451;49.510;6.026;2023-07-31T04:02:38;10.90;;;3.22;;
79052;SDS011;68451;49.510;6.026;2023-07-31T04:05:04;6.25;;;2.83;;
79052;SDS011;68451;49.510;6.026;2023-07-31T04:07:29;8.15;;;3.50;;
79052;SDS011;68451;49.510;6.026;2023-07-31T04:09:55;4.78;;;3.20;;
79052;SDS011;68451;49.510;6.026;2023-07-31T04:12:22;5.75;;;3.08;;
79052;SDS011;68451;49.510;6.026;2023-07-31T04:14:47;7.68;;;3.13;;
79052;SDS011;68451;49.510;6.026;2023-07-31T04:17:13;8.75;;;3.20;;
79052;SDS011;68451;49.510;6.026;2023-07-31T04:19:38;4.15;;;2.67;;
79052;SDS011;68451;49.510;6.026;2023-07-31T04:22:04;5.45;;;2.83;;
79052;SDS011;68451;49.510;6.026;2023-07-31T04:24:30;5.18;;;3.35;;
79052;SDS011;68451;49.510;6.026;2023-07-31T04:26:55;7.50;;;3.97;;
79052;SDS011;68451;49.510;6.026;2023-07-31T04:29:21;9.88;;;3.67;;
79052;SDS011;68451;49.510;6.026;2023-07-31T04:31:47;6.20;;;3.20;;
79052;SDS011;68451;49.510;6.026;2023-07-31T04:34:13;5.97;;;2.63;;
79052;SDS011;68451;49.510;6.026;2023-07-31T04:36:39;9.30;;;3.20;;
79052;SDS011;68451;49.510;6.026;2023-07-31T04:39:05;5.63;;;3.08;;
79052;SDS011;68451;49.510;6.026;2023-07-31T04:41:30;4.18;;;2.78;;
79052;SDS011;68451;49.510;6.026;2023-07-31T04:43:56;7.50;;;3.33;;
79052;SDS011;68451;49.510;6.026;2023-07-31T04:46:21;7.30;;;3.05;;
79052;SDS011;68451;49.510;6.026;2023-07-31T04:48:47;6.75;;;3.20;;
79052;SDS011;68451;49.510;6.026;2023-07-31T04:51:12;8.45;;;4.32;;
79052;SDS011;68451;49.510;6.026;2023-07-31T04:53:38;5.75;;;2.55;;
79052;SDS011;68451;49.510;6.026;2023-07-31T04:56:04;5.97;;;2.95;;
79052;SDS011;68451;49.510;6.026;2023-07-31T04:58:29;6.82;;;2.85;;
79052;SDS011;68451;49.510;6.026;2023-07-31T05:00:55;4.80;;;2.63;;
79052;SDS011;68451;49.510;6.026;2023-07-31T05:03:20;4.90;;;3.40;;
79052;SDS011;68451;49.510;6.026;2023-07-31T05:05:46;5.70;;;3.00;;
79052;SDS011;68451;49.510;6.026;2023-07-31T05:08:12;8.85;;;3.55;;
79052;SDS011;68451;49.510;6.026;2023-07-31T05:10:38;6.07;;;2.85;;
79052;SDS011;68451;49.510;6.026;2023-07-31T05:13:03;7.30;;;3.05;;
79052;SDS011;68451;49.510;6.026;2023-07-31T05:15:29;6.50;;;2.42;;
79052;SDS011;68451;49.510;6.026;2023-07-31T05:17:55;6.03;;;2.83;;
79052;SDS011;68451;49.510;6.026;2023-07-31T05:20:20;5.18;;;2.50;;
79052;SDS011;68451;49.510;6.026;2023-07-31T05:22:46;4.90;;;2.80;;
79052;SDS011;68451;49.510;6.026;2023-07-31T05:25:12;4.78;;;2.47;;
79052;SDS011;68451;49.510;6.026;2023-07-31T05:27:37;6.03;;;3.13;;
79052;SDS011;68451;49.510;6.026;2023-07-31T05:30:03;6.03;;;2.35;;
79052;SDS011;68451;49.510;6.026;2023-07-31T05:32:30;4.75;;;3.15;;
79052;SDS011;68451;49.510;6.026;2023-07-31T05:34:57;8.18;;;2.80;;
79052;SDS011;68451;49.510;6.026;2023-07-31T05:37:23;6.95;;;2.63;;
79052;SDS011;68451;49.510;6.026;2023-07-31T05:39:49;4.03;;;2.45;;
79052;SDS011;68451;49.510;6.026;2023-07-31T05:42:15;5.90;;;2.85;;
79052;SDS011;68451;49.510;6.026;2023-07-31T05:44:41;5.35;;;2.85;;
79052;SDS011;68451;49.510;6.026;2023-07-31T05:47:06;5.72;;;2.85;;
79052;SDS011;68451;49.510;6.026;2023-07-31T05:49:32;5.93;;;2.97;;
79052;SDS011;68451;49.510;6.026;2023-07-31T05:51:59;6.70;;;2.72;;
79052;SDS011;68451;49.510;6.026;2023-07-31T05:54:24;4.85;;;2.35;;
79052;SDS011;68451;49.510;6.026;2023-07-31T05:56:49;4.50;;;2.40;;
79052;SDS011;68451;49.510;6.026;2023-07-31T05:59:15;4.00;;;2.33;;
79052;SDS011;68451;49.510;6.026;2023-07-31T06:01:41;7.10;;;3.00;;
79052;SDS011;68451;49.510;6.026;2023-07-31T06:04:06;5.80;;;3.08;;
79052;SDS011;68451;49.510;6.026;2023-07-31T06:06:32;6.78;;;3.28;;
79052;SDS011;68451;49.510;6.026;2023-07-31T06:08:57;4.85;;;3.05;;
79052;SDS011;68451;49.510;6.026;2023-07-31T06:11:23;6.55;;;3.75;;
79052;SDS011;68451;49.510;6.026;2023-07-31T06:13:48;7.32;;;2.95;;
79052;SDS011;68451;49.510;6.026;2023-07-31T06:16:15;7.57;;;2.90;;
79052;SDS011;68451;49.510;6.026;2023-07-31T06:18:41;4.47;;;2.72;;
79052;SDS011;68451;49.510;6.026;2023-07-31T06:21:07;6.03;;;2.88;;
79052;SDS011;68451;49.510;6.026;2023-07-31T06:23:33;6.97;;;2.95;;
79052;SDS011;68451;49.510;6.026;2023-07-31T06:25:59;5.93;;;2.53;;
79052;SDS011;68451;49.510;6.026;2023-07-31T06:28:28;8.95;;;3.17;;
79052;SDS011;68451;49.510;6.026;2023-07-31T06:30:54;5.30;;;2.85;;
79052;SDS011;68451;49.510;6.026;2023-07-31T06:33:20;5.25;;;2.58;;
79052;SDS011;68451;49.510;6.026;2023-07-31T06:35:45;9.48;;;3.33;;
79052;SDS011;68451;49.510;6.026;2023-07-31T06:38:11;7.25;;;3.25;;
79052;SDS011;68451;49.510;6.026;2023-07-31T06:40:36;5.93;;;3.17;;
79052;SDS011;68451;49.510;6.026;2023-07-31T06:43:01;5.85;;;3.13;;
79052;SDS011;68451;49.510;6.026;2023-07-31T06:45:33;5.85;;;2.47;;
79052;SDS011;68451;49.510;6.026;2023-07-31T06:48:00;6.80;;;2.75;;
79052;SDS011;68451;49.510;6.026;2023-07-31T06:50:27;5.35;;;3.70;;
79052;SDS011;68451;49.510;6.026;2023-07-31T06:52:53;7.18;;;2.88;;
79052;SDS011;68451;49.510;6.026;2023-07-31T06:55:19;6.68;;;2.83;;
79052;SDS011;68451;49.510;6.026;2023-07-31T06:57:47;5.70;;;2.70;;
79052;SDS011;68451;49.510;6.026;2023-07-31T07:00:13;4.07;;;2.55;;
79052;SDS011;68451;49.510;6.026;2023-07-31T07:02:39;4.90;;;2.65;;
79052;SDS011;68451;49.510;6.026;2023-07-31T07:05:06;4.13;;;2.55;;
79052;SDS011;68451;49.510;6.026;2023-07-31T07:07:32;5.70;;;3.38;;
79052;SDS011;68451;49.510;6.026;2023-07-31T07:09:58;4.28;;;2.63;;
79052;SDS011;68451;49.510;6.026;2023-07-31T07:12:25;6.35;;;2.63;;
79052;SDS011;68451;49.510;6.026;2023-07-31T07:14:50;8.27;;;3.25;;
79052;SDS011;68451;49.510;6.026;2023-07-31T07:17:18;6.43;;;3.30;;
79052;SDS011;68451;49.510;6.026;2023-07-31T07:19:43;5.78;;;2.70;;
79052;SDS011;68451;49.510;6.026;2023-07-31T07:22:10;5.13;;;3.10;;
79052;SDS011;68451;49.510;6.026;2023-07-31T07:24:36;5.72;;;3.15;;
79052;SDS011;68451;49.510;6.026;2023-07-31T07:27:02;4.15;;;2.75;;
79052;SDS011;68451;49.510;6.026;2023-07-31T07:29:28;11.00;;;3.80;;
79052;SDS011;68451;49.510;6.026;2023-07-31T07:31:53;4.55;;;3.10;;
79052;SDS011;68451;49.510;6.026;2023-07-31T07:34:18;4.90;;;3.05;;
79052;SDS011;68451;49.510;6.026;2023-07-31T07:36:44;5.25;;;3.03;;
79052;SDS011;68451;49.510;6.026;2023-07-31T07:39:10;5.75;;;2.60;;
79052;SDS011;68451;49.510;6.026;2023-07-31T07:41:36;6.80;;;3.13;;
79052;SDS011;68451;49.510;6.026;2023-07-31T07:44:02;7.15;;;3.30;;
79052;SDS011;68451;49.510;6.026;2023-07-31T07:46:27;7.28;;;3.50;;
79052;SDS011;68451;49.510;6.026;2023-07-31T07:48:53;6.25;;;3.00;;
79052;SDS011;68451;49.510;6.026;2023-07-31T07:51:18;8.40;;;2.70;;
79052;SDS011;68451;49.510;6.026;2023-07-31T07:53:44;7.20;;;2.90;;
79052;SDS011;68451;49.510;6.026;2023-07-31T07:56:09;6.90;;;3.10;;
79052;SDS011;68451;49.510;6.026;2023-07-31T07:58:34;4.13;;;2.40;;
79052;SDS011;68451;49.510;6.026;2023-07-31T08:01:00;7.18;;;2.92;;
79052;SDS011;68451;49.510;6.026;2023-07-31T08:03:25;6.18;;;2.85;;
79052;SDS011;68451;49.510;6.026;2023-07-31T08:05:51;7.78;;;3.22;;
79052;SDS011;68451;49.510;6.026;2023-07-31T08:08:16;4.65;;;2.58;;
79052;SDS011;68451;49.510;6.026;2023-07-31T08:10:42;5.82;;;2.92;;
79052;SDS011;68451;49.510;6.026;2023-07-31T08:13:09;4.30;;;2.42;;
79052;SDS011;68451;49.510;6.026;2023-07-31T08:15:40;3.53;;;2.30;;
79052;SDS011;68451;49.510;6.026;2023-07-31T08:18:06;4.03;;;2.50;;
79052;SDS011;68451;49.510;6.026;2023-07-31T08:20:31;3.92;;;2.80;;
79052;SDS011;68451;49.510;6.026;2023-07-31T08:22:57;4.32;;;2.78;;
79052;SDS011;68451;49.510;6.026;2023-07-31T08:25:23;4.05;;;2.75;;
79052;SDS011;68451;49.510;6.026;2023-07-31T08:27:48;6.13;;;2.78;;
79052;SDS011;68451;49.510;6.026;2023-07-31T08:30:14;5.22;;;3.10;;
79052;SDS011;68451;49.510;6.026;2023-07-31T08:32:39;3.92;;;1.90;;
79052;SDS011;68451;49.510;6.026;2023-07-31T08:35:05;5.63;;;2.58;;
79052;SDS011;68451;49.510;6.026;2023-07-31T08:37:32;3.47;;;2.22;;
79052;SDS011;68451;49.510;6.026;2023-07-31T08:39:57;6.28;;;2.65;;
79052;SDS011;68451;49.510;6.026;2023-07-31T08:42:23;5.45;;;2.53;;
79052;SDS011;68451;49.510;6.026;2023-07-31T08:44:50;8.18;;;2.65;;
79052;SDS011;68451;49.510;6.026;2023-07-31T08:47:19;2.80;;;2.08;;
79052;SDS011;68451;49.510;6.026;2023-07-31T08:49:46;3.88;;;2.30;;
79052;SDS011;68451;49.510;6.026;2023-07-31T08:52:15;5.25;;;2.17;;
79052;SDS011;68451;49.510;6.026;2023-07-31T08:54:46;2.97;;;1.90;;
79052;SDS011;68451;49.510;6.026;2023-07-31T08:57:12;4.47;;;2.25;;
79052;SDS011;68451;49.510;6.026;2023-07-31T08:59:40;3.25;;;2.17;;
79052;SDS011;68451;49.510;6.026;2023-07-31T09:02:07;5.30;;;2.13;;
79052;SDS011;68451;49.510;6.026;2023-07-31T09:04:33;4.78;;;2.33;;
79052;SDS011;68451;49.510;6.026;2023-07-31T09:07:00;3.13;;;1.90;;
79052;SDS011;68451;49.510;6.026;2023-07-31T09:09:29;5.10;;;2.10;;
79052;SDS011;68451;49.510;6.026;2023-07-31T09:11:57;3.95;;;2.53;;
79052;SDS011;68451;49.510;6.026;2023-07-31T09:14:24;4.03;;;2.28;;
79052;SDS011;68451;49.510;6.026;2023-07-31T09:16:51;3.22;;;1.63;;
79052;SDS011;68451;49.510;6.026;2023-07-31T09:19:37;4.20;;;2.03;;
79052;SDS011;68451;49.510;6.026;2023-07-31T09:22:05;5.00;;;2.08;;
79052;SDS011;68451;49.510;6.026;2023-07-31T09:24:31;5.18;;;1.80;;
79052;SDS011;68451;49.510;6.026;2023-07-31T09:26:59;4.32;;;1.85;;
79052;SDS011;68451;49.510;6.026;2023-07-31T09:29:26;3.10;;;2.15;;
79052;SDS011;68451;49.510;6.026;2023-07-31T09:31:53;2.92;;;1.90;;
79052;SDS011;68451;49.510;6.026;2023-07-31T09:34:20;3.10;;;1.77;;
79052;SDS011;68451;49.510;6.026;2023-07-31T09:36:52;2.42;;;1.67;;
79052;SDS011;68451;49.510;6.026;2023-07-31T09:39:18;2.83;;;1.73;;
79052;SDS011;68451;49.510;6.026;2023-07-31T09:41:53;4.93;;;2.00;;
79052;SDS011;68451;49.510;6.026;2023-07-31T09:44:19;3.53;;;1.70;;
79052;SDS011;68451;49.510;6.026;2023-07-31T09:46:45;3.10;;;2.00;;
79052;SDS011;68451;49.510;6.026;2023-07-31T09:49:11;4.10;;;2.20;;
79052;SDS011;68451;49.510;6.026;2023-07-31T09:51:38;4.10;;;2.58;;
79052;SDS011;68451;49.510;6.026;2023-07-31T09:54:14;4.63;;;2.05;;
79052;SDS011;68451;49.510;6.026;2023-07-31T09:56:42;2.50;;;1.63;;
79052;SDS011;68451;49.510;6.026;2023-07-31T09:59:14;2.70;;;2.17;;
79052;SDS011;68451;49.510;6.026;2023-07-31T10:01:41;3.85;;;2.40;;
79052;SDS011;68451;49.510;6.026;2023-07-31T10:04:08;3.35;;;2.55;;
79052;SDS011;68451;49.510;6.026;2023-07-31T10:06:35;2.58;;;1.80;;
79052;SDS011;68451;49.510;6.026;2023-07-31T10:09:02;5.03;;;2.35;;
79052;SDS011;68451;49.510;6.026;2023-07-31T10:11:31;4.10;;;1.80;;
79052;SDS011;68451;49.510;6.026;2023-07-31T10:14:02;3.13;;;2.03;;
79052;SDS011;68451;49.510;6.026;2023-07-31T10:16:31;3.58;;;2.33;;
79052;SDS011;68451;49.510;6.026;2023-07-31T10:18:57;4.30;;;2.42;;
79052;SDS011;68451;49.510;6.026;2023-07-31T10:21:24;4.35;;;2.50;;
79052;SDS011;68451;49.510;6.026;2023-07-31T10:23:50;3.90;;;1.98;;
79052;SDS011;68451;49.510;6.026;2023-07-31T10:26:17;2.88;;;2.13;;
79052;SDS011;68451;49.510;6.026;2023-07-31T10:28:44;4.82;;;2.40;;
79052;SDS011;68451;49.510;6.026;2023-07-31T10:31:12;3.13;;;2.05;;
79052;SDS011;68451;49.510;6.026;2023-07-31T10:33:38;3.55;;;2.42;;
79052;SDS011;68451;49.510;6.026;2023-07-31T10:36:11;3.40;;;2.30;;
79052;SDS011;68451;49.510;6.026;2023-07-31T10:38:44;4.43;;;2.47;;
79052;SDS011;68451;49.510;6.026;2023-07-31T10:41:10;7.43;;;2.55;;
79052;SDS011;68451;49.510;6.026;2023-07-31T10:43:39;4.43;;;2.63;;
79052;SDS011;68451;49.510;6.026;2023-07-31T10:46:08;5.22;;;2.70;;
79052;SDS011;68451;49.510;6.026;2023-07-31T10:48:38;4.90;;;2.45;;
79052;SDS011;68451;49.510;6.026;2023-07-31T10:51:07;3.35;;;2.25;;
79052;SDS011;68451;49.510;6.026;2023-07-31T10:53:35;3.63;;;2.17;;
79052;SDS011;68451;49.510;6.026;2023-07-31T10:56:02;3.92;;;2.10;;
79052;SDS011;68451;49.510;6.026;2023-07-31T10:58:29;3.25;;;2.15;;
79052;SDS011;68451;49.510;6.026;2023-07-31T11:00:59;4.38;;;2.33;;
79052;SDS011;68451;49.510;6.026;2023-07-31T11:03:27;3.58;;;2.13;;
79052;SDS011;68451;49.510;6.026;2023-07-31T11:06:14;3.63;;;2.35;;
79052;SDS011;68451;49.510;6.026;2023-07-31T11:08:41;3.75;;;2.25;;
79052;SDS011;68451;49.510;6.026;2023-07-31T11:11:09;3.83;;;2.53;;
79052;SDS011;68451;49.510;6.026;2023-07-31T11:16:16;5.85;;;2.10;;
79052;SDS011;68451;49.510;6.026;2023-07-31T11:18:43;4.28;;;2.50;;
79052;SDS011;68451;49.510;6.026;2023-07-31T11:21:11;5.32;;;2.53;;
79052;SDS011;68451;49.510;6.026;2023-07-31T11:23:39;4.43;;;2.50;;
79052;SDS011;68451;49.510;6.026;2023-07-31T11:26:05;3.40;;;2.40;;
79052;SDS011;68451;49.510;6.026;2023-07-31T11:28:32;4.45;;;2.20;;
79052;SDS011;68451;49.510;6.026;2023-07-31T11:30:59;7.75;;;2.97;;
79052;SDS011;68451;49.510;6.026;2023-07-31T11:33:26;5.28;;;2.72;;
79052;SDS011;68451;49.510;6.026;2023-07-31T11:35:51;5.95;;;2.63;;
79052;SDS011;68451;49.510;6.026;2023-07-31T11:38:21;3.15;;;2.17;;
79052;SDS011;68451;49.510;6.026;2023-07-31T11:40:55;6.00;;;2.72;;
79052;SDS011;68451;49.510;6.026;2023-07-31T11:43:22;3.97;;;2.30;;
79052;SDS011;68451;49.510;6.026;2023-07-31T11:45:50;5.53;;;2.70;;
79052;SDS011;68451;49.510;6.026;2023-07-31T11:48:22;4.28;;;2.28;;
79052;SDS011;68451;49.510;6.026;2023-07-31T11:50:58;5.28;;;2.78;;
79052;SDS011;68451;49.510;6.026;2023-07-31T11:53:29;4.65;;;2.63;;
79052;SDS011;68451;49.510;6.026;2023-07-31T11:55:59;3.70;;;2.45;;
79052;SDS011;68451;49.510;6.026;2023-07-31T11:58:26;4.03;;;2.35;;
79052;SDS011;68451;49.510;6.026;2023-07-31T12:00:53;6.57;;;3.03;;
79052;SDS011;68451;49.510;6.026;2023-07-31T12:03:20;5.00;;;2.47;;
79052;SDS011;68451;49.510;6.026;2023-07-31T12:05:49;4.57;;;2.80;;
79052;SDS011;68451;49.510;6.026;2023-07-31T12:08:15;3.78;;;2.70;;
79052;SDS011;68451;49.510;6.026;2023-07-31T12:10:41;4.47;;;2.28;;
79052;SDS011;68451;49.510;6.026;2023-07-31T12:13:11;4.88;;;2.63;;
79052;SDS011;68451;49.510;6.026;2023-07-31T12:15:44;5.43;;;3.13;;
79052;SDS011;68451;49.510;6.026;2023-07-31T12:18:11;4.50;;;2.60;;
79052;SDS011;68451;49.510;6.026;2023-07-31T12:20:45;5.30;;;2.80;;
79052;SDS011;68451;49.510;6.026;2023-07-31T12:26:04;4.15;;;2.90;;
79052;SDS011;68451;49.510;6.026;2023-07-31T12:28:36;6.50;;;3.45;;
79052;SDS011;68451;49.510;6.026;2023-07-31T12:31:05;7.50;;;3.03;;
79052;SDS011;68451;49.510;6.026;2023-07-31T12:33:32;5.20;;;3.03;;
79052;SDS011;68451;49.510;6.026;2023-07-31T12:36:00;4.82;;;2.65;;
79052;SDS011;68451;49.510;6.026;2023-07-31T12:38:27;6.72;;;3.30;;
79052;SDS011;68451;49.510;6.026;2023-07-31T12:40:53;4.65;;;3.35;;
79052;SDS011;68451;49.510;6.026;2023-07-31T12:43:19;6.28;;;3.20;;
79052;SDS011;68451;49.510;6.026;2023-07-31T12:45:44;4.25;;;2.63;;
79052;SDS011;68451;49.510;6.026;2023-07-31T12:48:10;5.38;;;3.00;;
79052;SDS011;68451;49.510;6.026;2023-07-31T12:50:35;4.95;;;2.83;;
79052;SDS011;68451;49.510;6.026;2023-07-31T12:53:02;4.75;;;2.80;;
79052;SDS011;68451;49.510;6.026;2023-07-31T12:55:28;6.32;;;3.72;;
79052;SDS011;68451;49.510;6.026;2023-07-31T12:57:55;7.15;;;3.85;;
79052;SDS011;68451;49.510;6.026;2023-07-31T13:00:20;4.43;;;3.05;;
79052;SDS011;68451;49.510;6.026;2023-07-31T13:02:46;5.00;;;3.63;;
79052;SDS011;68451;49.510;6.026;2023-07-31T13:05:12;4.28;;;3.15;;
79052;SDS011;68451;49.510;6.026;2023-07-31T13:07:38;5.53;;;2.75;;
79052;SDS011;68451;49.510;6.026;2023-07-31T13:10:04;6.18;;;3.38;;
79052;SDS011;68451;49.510;6.026;2023-07-31T13:12:31;7.35;;;3.55;;
79052;SDS011;68451;49.510;6.026;2023-07-31T13:14:56;6.85;;;3.47;;
79052;SDS011;68451;49.510;6.026;2023-07-31T13:17:22;7.85;;;3.42;;
79052;SDS011;68451;49.510;6.026;2023-07-31T13:19:48;4.03;;;2.97;;
79052;SDS011;68451;49.510;6.026;2023-07-31T13:22:13;6.68;;;3.28;;
79052;SDS011;68451;49.510;6.026;2023-07-31T13:24:40;4.88;;;3.22;;
79052;SDS011;68451;49.510;6.026;2023-07-31T13:27:06;6.30;;;3.50;;
79052;SDS011;68451;49.510;6.026;2023-07-31T13:29:32;6.60;;;3.33;;
79052;SDS011;68451;49.510;6.026;2023-07-31T13:31:57;6.28;;;3.35;;
79052;SDS011;68451;49.510;6.026;2023-07-31T13:34:23;5.68;;;3.33;;
79052;SDS011;68451;49.510;6.026;2023-07-31T13:36:48;6.95;;;3.65;;
79052;SDS011;68451;49.510;6.026;2023-07-31T13:39:14;8.35;;;3.72;;
79052;SDS011;68451;49.510;6.026;2023-07-31T13:41:39;7.30;;;3.58;;
79052;SDS011;68451;49.510;6.026;2023-07-31T13:44:05;12.18;;;4.03;;
79052;SDS011;68451;49.510;6.026;2023-07-31T13:46:30;7.38;;;3.80;;
79052;SDS011;68451;49.510;6.026;2023-07-31T13:48:57;5.30;;;3.72;;
79052;SDS011;68451;49.510;6.026;2023-07-31T13:51:26;5.95;;;3.80;;
79052;SDS011;68451;49.510;6.026;2023-07-31T13:53:53;5.40;;;3.22;;
79052;SDS011;68451;49.510;6.026;2023-07-31T13:56:18;5.47;;;3.85;;
79052;SDS011;68451;49.510;6.026;2023-07-31T13:58:44;5.47;;;4.00;;
79052;SDS011;68451;49.510;6.026;2023-07-31T14:01:09;5.65;;;3.55;;
79052;SDS011;68451;49.510;6.026;2023-07-31T14:03:35;7.60;;;4.38;;
79052;SDS011;68451;49.510;6.026;2023-07-31T14:06:00;8.75;;;4.00;;
79052;SDS011;68451;49.510;6.026;2023-07-31T14:08:26;11.98;;;3.65;;
79052;SDS011;68451;49.510;6.026;2023-07-31T14:10:52;6.38;;;3.17;;
79052;SDS011;68451;49.510;6.026;2023-07-31T14:13:18;5.70;;;3.38;;
79052;SDS011;68451;49.510;6.026;2023-07-31T14:15:44;7.22;;;4.15;;
79052;SDS011;68451;49.510;6.026;2023-07-31T14:18:09;8.68;;;4.75;;
79052;SDS011;68451;49.510;6.026;2023-07-31T14:20:35;9.65;;;3.78;;
79052;SDS011;68451;49.510;6.026;2023-07-31T14:23:02;5.68;;;3.63;;
79052;SDS011;68451;49.510;6.026;2023-07-31T14:25:28;5.45;;;3.40;;
79052;SDS011;68451;49.510;6.026;2023-07-31T14:27:53;7.53;;;3.75;;
79052;SDS011;68451;49.510;6.026;2023-07-31T14:30:19;6.70;;;3.70;;
79052;SDS011;68451;49.510;6.026;2023-07-31T14:32:45;7.63;;;4.60;;
79052;SDS011;68451;49.510;6.026;2023-07-31T14:35:11;8.50;;;4.05;;
79052;SDS011;68451;49.510;6.026;2023-07-31T14:37:37;7.47;;;4.15;;
79052;SDS011;68451;49.510;6.026;2023-07-31T14:40:04;6.75;;;4.25;;
79052;SDS011;68451;49.510;6.026;2023-07-31T14:42:30;5.97;;;4.38;;
79052;SDS011;68451;49.510;6.026;2023-07-31T14:44:56;10.48;;;4.10;;
79052;SDS011;68451;49.510;6.026;2023-07-31T14:47:21;7.93;;;4.35;;
79052;SDS011;68451;49.510;6.026;2023-07-31T14:49:47;8.80;;;4.07;;
79052;SDS011;68451;49.510;6.026;2023-07-31T14:52:12;9.38;;;4.32;;